sensor_id;sensor_type;location;lat;lon;timestamp;temperature;humidity
66401;HTU21D;53211;45.040;38.788;2022-08-21T00:01:15;25.32;69.18
66401;HTU21D;53211;45.040;38.788;2022-08-21T00:03:41;25.28;69.28
66401;HTU21D;53211;45.040;38.788;2022-08-21T00:06:07;25.24;69.38
66401;HTU21D;53211;45.040;38.788;2022-08-21T00:08:33;25.21;69.49
66401;HTU21D;53211;45.040;38.788;2022-08-21T00:10:59;25.17;69.60
66401;HTU21D;53211;45.040;38.788;2022-08-21T00:13:25;25.13;69.68
66401;HTU21D;53211;45.040;38.788;2022-08-21T00:15:51;25.10;69.74
66401;HTU21D;53211;45.040;38.788;2022-08-21T00:18:17;25.07;69.84
66401;HTU21D;53211;45.040;38.788;2022-08-21T00:20:43;25.03;69.94
66401;HTU21D;53211;45.040;38.788;2022-08-21T00:23:10;25.00;70.02
66401;HTU21D;53211;45.040;38.788;2022-08-21T00:25:36;24.95;70.07
66401;HTU21D;53211;45.040;38.788;2022-08-21T00:28:02;24.91;70.11
66401;HTU21D;53211;45.040;38.788;2022-08-21T00:30:28;24.95;69.87
66401;HTU21D;53211;45.040;38.788;2022-08-21T00:32:54;24.94;69.90
66401;HTU21D;53211;45.040;38.788;2022-08-21T00:35:23;24.92;69.97
66401;HTU21D;53211;45.040;38.788;2022-08-21T00:37:49;0.00;70.02
66401;HTU21D;53211;45.040;38.788;2022-08-21T00:40:16;24.88;70.07
66401;HTU21D;53211;45.040;38.788;2022-08-21T00:42:43;24.84;70.14
66401;HTU21D;53211;45.040;38.788;2022-08-21T00:45:10;24.84;70.25
66401;HTU21D;53211;45.040;38.788;2022-08-21T00:47:36;24.84;70.32
66401;HTU21D;53211;45.040;38.788;2022-08-21T00:50:03;24.80;70.88
66401;HTU21D;53211;45.040;38.788;2022-08-21T00:52:30;24.79;70.47
66401;HTU21D;53211;45.040;38.788;2022-08-21T00:54:57;24.78;70.51
66401;HTU21D;53211;45.040;38.788;2022-08-21T00:57:29;24.77;70.55
66401;HTU21D;53211;45.040;38.788;2022-08-21T00:59:57;24.77;70.57
66401;HTU21D;53211;45.040;38.788;2022-08-21T01:02:24;24.77;70.63
66401;HTU21D;53211;45.040;38.788;2022-08-21T01:04:50;24.77;70.68
66401;HTU21D;53211;45.040;38.788;2022-08-21T01:07:16;24.77;70.72
66401;HTU21D;53211;45.040;38.788;2022-08-21T01:09:41;24.75;70.93
66401;HTU21D;53211;45.040;38.788;2022-08-21T01:12:07;24.73;70.87
66401;HTU21D;53211;45.040;38.788;2022-08-21T01:14:34;24.73;70.91
66401;HTU21D;53211;45.040;38.788;2022-08-21T01:17:00;24.72;70.94
66401;HTU21D;53211;45.040;38.788;2022-08-21T01:19:26;24.74;70.94
66401;HTU21D;53211;45.040;38.788;2022-08-21T01:21:53;24.74;71.00
66401;HTU21D;53211;45.040;38.788;2022-08-21T01:24:19;24.73;71.07
66401;HTU21D;53211;45.040;38.788;2022-08-21T01:26:45;24.72;71.14
66401;HTU21D;53211;45.040;38.788;2022-08-21T01:29:16;24.73;71.20
66401;HTU21D;53211;45.040;38.788;2022-08-21T01:31:45;24.73;71.30
66401;HTU21D;53211;45.040;38.788;2022-08-21T01:34:11;24.71;71.28
66401;HTU21D;53211;45.040;38.788;2022-08-21T01:36:37;24.74;71.29
66401;HTU21D;53211;45.040;38.788;2022-08-21T01:39:04;24.71;71.36
66401;HTU21D;53211;45.040;38.788;2022-08-21T01:41:30;24.70;71.42
66401;HTU21D;53211;45.040;38.788;2022-08-21T01:43:56;24.58;71.84
66401;HTU21D;53211;45.040;38.788;2022-08-21T01:46:22;24.64;71.67
66401;HTU21D;53211;45.040;38.788;2022-08-21T01:48:48;24.64;71.64
66401;HTU21D;53211;45.040;38.788;2022-08-21T01:51:14;24.63;71.71
66401;HTU21D;53211;45.040;38.788;2022-08-21T01:53:39;24.63;71.73
66401;HTU21D;53211;45.040;38.788;2022-08-21T01:56:07;24.63;71.74
66401;HTU21D;53211;45.040;38.788;2022-08-21T01:58:33;24.62;71.76
66401;HTU21D;53211;45.040;38.788;2022-08-21T02:00:59;24.62;71.77
66401;HTU21D;53211;45.040;38.788;2022-08-21T02:03:27;24.61;71.75
66401;HTU21D;53211;45.040;38.788;2022-08-21T02:05:53;24.61;71.75
66401;HTU21D;53211;45.040;38.788;2022-08-21T02:08:19;24.60;71.75
66401;HTU21D;53211;45.040;38.788;2022-08-21T02:10:49;24.61;71.77
66401;HTU21D;53211;45.040;38.788;2022-08-21T02:13:15;24.59;71.87
66401;HTU21D;53211;45.040;38.788;2022-08-21T02:15:41;24.59;71.82
66401;HTU21D;53211;45.040;38.788;2022-08-21T02:18:07;24.60;71.79
66401;HTU21D;53211;45.040;38.788;2022-08-21T02:20:35;24.59;71.78
66401;HTU21D;53211;45.040;38.788;2022-08-21T02:23:01;24.57;71.83
66401;HTU21D;53211;45.040;38.788;2022-08-21T02:25:27;24.56;71.80
66401;HTU21D;53211;45.040;38.788;2022-08-21T02:27:53;24.56;71.83
66401;HTU21D;53211;45.040;38.788;2022-08-21T02:30:29;24.56;71.86
66401;HTU21D;53211;45.040;38.788;2022-08-21T02:32:55;24.58;71.87
66401;HTU21D;53211;45.040;38.788;2022-08-21T02:35:21;24.58;71.86
66401;HTU21D;53211;45.040;38.788;2022-08-21T02:37:54;24.60;71.87
66401;HTU21D;53211;45.040;38.788;2022-08-21T02:40:21;24.63;71.91
66401;HTU21D;53211;45.040;38.788;2022-08-21T02:42:47;24.64;71.91
66401;HTU21D;53211;45.040;38.788;2022-08-21T02:45:13;24.69;71.93
66401;HTU21D;53211;45.040;38.788;2022-08-21T02:47:39;24.72;71.89
66401;HTU21D;53211;45.040;38.788;2022-08-21T02:50:06;24.77;71.79
66401;HTU21D;53211;45.040;38.788;2022-08-21T02:52:33;24.80;71.76
66401;HTU21D;53211;45.040;38.788;2022-08-21T02:54:59;24.84;71.77
66401;HTU21D;53211;45.040;38.788;2022-08-21T02:57:25;24.88;71.75
66401;HTU21D;53211;45.040;38.788;2022-08-21T02:59:51;24.95;71.72
66401;HTU21D;53211;45.040;38.788;2022-08-21T03:02:17;24.98;71.69
66401;HTU21D;53211;45.040;38.788;2022-08-21T03:04:43;25.02;71.64
66401;HTU21D;53211;45.040;38.788;2022-08-21T03:07:09;25.07;71.55
66401;HTU21D;53211;45.040;38.788;2022-08-21T03:09:34;25.12;71.50
66401;HTU21D;53211;45.040;38.788;2022-08-21T03:12:00;25.16;71.46
66401;HTU21D;53211;45.040;38.788;2022-08-21T03:14:26;25.21;71.38
66401;HTU21D;53211;45.040;38.788;2022-08-21T03:16:52;25.28;71.30
66401;HTU21D;53211;45.040;38.788;2022-08-21T03:19:18;25.32;71.20
66401;HTU21D;53211;45.040;38.788;2022-08-21T03:21:44;25.37;71.16
66401;HTU21D;53211;45.040;38.788;2022-08-21T03:24:10;25.42;71.13
66401;HTU21D;53211;45.040;38.788;2022-08-21T03:26:36;25.46;71.08
66401;HTU21D;53211;45.040;38.788;2022-08-21T03:29:01;25.52;71.01
66401;HTU21D;53211;45.040;38.788;2022-08-21T03:31:27;25.56;70.94
66401;HTU21D;53211;45.040;38.788;2022-08-21T03:33:56;25.60;70.89
66401;HTU21D;53211;45.040;38.788;2022-08-21T03:36:22;25.64;70.85
66401;HTU21D;53211;45.040;38.788;2022-08-21T03:38:48;25.69;70.81
66401;HTU21D;53211;45.040;38.788;2022-08-21T03:41:14;25.74;70.78
66401;HTU21D;53211;45.040;38.788;2022-08-21T03:43:40;25.79;70.71
66401;HTU21D;53211;45.040;38.788;2022-08-21T03:46:06;25.84;70.64
66401;HTU21D;53211;45.040;38.788;2022-08-21T03:48:32;25.89;70.55
66401;HTU21D;53211;45.040;38.788;2022-08-21T03:50:59;25.90;70.47
66401;HTU21D;53211;45.040;38.788;2022-08-21T03:53:25;25.90;70.42
66401;HTU21D;53211;45.040;38.788;2022-08-21T03:55:51;25.92;70.38
66401;HTU21D;53211;45.040;38.788;2022-08-21T03:58:19;25.91;70.37
66401;HTU21D;53211;45.040;38.788;2022-08-21T04:00:45;25.89;70.36
66401;HTU21D;53211;45.040;38.788;2022-08-21T04:03:12;25.89;70.35
66401;HTU21D;53211;45.040;38.788;2022-08-21T04:05:38;25.89;70.33
66401;HTU21D;53211;45.040;38.788;2022-08-21T04:08:04;25.88;70.34
66401;HTU21D;53211;45.040;38.788;2022-08-21T04:10:31;25.89;70.34
66401;HTU21D;53211;45.040;38.788;2022-08-21T04:12:57;25.89;70.35
66401;HTU21D;53211;45.040;38.788;2022-08-21T04:15:23;25.90;70.33
66401;HTU21D;53211;45.040;38.788;2022-08-21T04:17:49;25.92;70.31
66401;HTU21D;53211;45.040;38.788;2022-08-21T04:20:19;25.92;70.29
66401;HTU21D;53211;45.040;38.788;2022-08-21T04:22:45;25.97;70.24
66401;HTU21D;53211;45.040;38.788;2022-08-21T04:25:11;25.99;70.19
66401;HTU21D;53211;45.040;38.788;2022-08-21T04:27:37;26.03;70.12
66401;HTU21D;53211;45.040;38.788;2022-08-21T04:30:04;26.04;70.07
66401;HTU21D;53211;45.040;38.788;2022-08-21T04:32:31;26.07;70.04
66401;HTU21D;53211;45.040;38.788;2022-08-21T04:35:00;26.11;70.00
66401;HTU21D;53211;45.040;38.788;2022-08-21T04:37:26;26.20;69.98
66401;HTU21D;53211;45.040;38.788;2022-08-21T04:39:52;26.04;70.94
66401;HTU21D;53211;45.040;38.788;2022-08-21T04:42:18;26.17;70.98
66401;HTU21D;53211;45.040;38.788;2022-08-21T04:44:44;26.35;70.84
66401;HTU21D;53211;45.040;38.788;2022-08-21T04:47:10;26.52;70.64
66401;HTU21D;53211;45.040;38.788;2022-08-21T04:49:36;26.65;70.45
66401;HTU21D;53211;45.040;38.788;2022-08-21T04:52:02;26.77;70.27
66401;HTU21D;53211;45.040;38.788;2022-08-21T04:54:27;26.83;70.13
66401;HTU21D;53211;45.040;38.788;2022-08-21T04:56:55;26.90;70.04
66401;HTU21D;53211;45.040;38.788;2022-08-21T04:59:26;26.94;69.94
66401;HTU21D;53211;45.040;38.788;2022-08-21T05:01:53;26.99;69.82
66401;HTU21D;53211;45.040;38.788;2022-08-21T05:04:24;26.99;69.76
66401;HTU21D;53211;45.040;38.788;2022-08-21T05:06:52;27.00;69.68
66401;HTU21D;53211;45.040;38.788;2022-08-21T05:09:19;27.00;69.61
66401;HTU21D;53211;45.040;38.788;2022-08-21T05:11:46;27.00;69.53
66401;HTU21D;53211;45.040;38.788;2022-08-21T05:14:12;27.02;69.48
66401;HTU21D;53211;45.040;38.788;2022-08-21T05:16:38;27.07;69.47
66401;HTU21D;53211;45.040;38.788;2022-08-21T05:19:05;27.16;69.38
66401;HTU21D;53211;45.040;38.788;2022-08-21T05:21:31;27.28;69.31
66401;HTU21D;53211;45.040;38.788;2022-08-21T05:23:57;27.41;69.10
66401;HTU21D;53211;45.040;38.788;2022-08-21T05:26:23;27.51;68.95
66401;HTU21D;53211;45.040;38.788;2022-08-21T05:28:49;27.60;68.75
66401;HTU21D;53211;45.040;38.788;2022-08-21T05:31:14;27.70;68.64
66401;HTU21D;53211;45.040;38.788;2022-08-21T05:33:40;27.75;68.54
66401;HTU21D;53211;45.040;38.788;2022-08-21T05:36:06;27.84;68.39
66401;HTU21D;53211;45.040;38.788;2022-08-21T05:38:32;27.91;68.27
66401;HTU21D;53211;45.040;38.788;2022-08-21T05:40:58;28.01;68.15
66401;HTU21D;53211;45.040;38.788;2022-08-21T05:43:23;28.14;67.99
66401;HTU21D;53211;45.040;38.788;2022-08-21T05:45:49;28.30;67.80
66401;HTU21D;53211;45.040;38.788;2022-08-21T05:48:17;28.44;67.54
66401;HTU21D;53211;45.040;38.788;2022-08-21T05:50:44;28.59;67.39
66401;HTU21D;53211;45.040;38.788;2022-08-21T05:53:10;28.74;67.22
66401;HTU21D;53211;45.040;38.788;2022-08-21T05:55:36;28.85;67.04
66401;HTU21D;53211;45.040;38.788;2022-08-21T05:58:03;28.97;66.85
66401;HTU21D;53211;45.040;38.788;2022-08-21T06:00:29;29.03;66.73
66401;HTU21D;53211;45.040;38.788;2022-08-21T06:02:55;29.08;66.53
66401;HTU21D;53211;45.040;38.788;2022-08-21T06:05:21;29.11;66.42
66401;HTU21D;53211;45.040;38.788;2022-08-21T06:07:46;29.12;66.33
66401;HTU21D;53211;45.040;38.788;2022-08-21T06:10:12;29.13;66.30
66401;HTU21D;53211;45.040;38.788;2022-08-21T06:12:38;29.13;66.27
66401;HTU21D;53211;45.040;38.788;2022-08-21T06:15:04;29.14;66.20
66401;HTU21D;53211;45.040;38.788;2022-08-21T06:17:30;29.12;66.15
66401;HTU21D;53211;45.040;38.788;2022-08-21T06:19:56;29.11;66.01
66401;HTU21D;53211;45.040;38.788;2022-08-21T06:22:22;29.06;66.01
66401;HTU21D;53211;45.040;38.788;2022-08-21T06:24:48;29.04;66.01
66401;HTU21D;53211;45.040;38.788;2022-08-21T06:27:13;29.04;66.02
66401;HTU21D;53211;45.040;38.788;2022-08-21T06:29:40;29.08;65.93
66401;HTU21D;53211;45.040;38.788;2022-08-21T06:32:10;29.11;65.78
66401;HTU21D;53211;45.040;38.788;2022-08-21T06:34:36;29.09;65.68
66401;HTU21D;53211;45.040;38.788;2022-08-21T06:37:03;29.11;65.60
66401;HTU21D;53211;45.040;38.788;2022-08-21T06:39:29;29.12;65.62
66401;HTU21D;53211;45.040;38.788;2022-08-21T06:41:55;29.18;65.57
66401;HTU21D;53211;45.040;38.788;2022-08-21T06:44:27;29.28;65.56
66401;HTU21D;53211;45.040;38.788;2022-08-21T06:46:53;29.41;65.53
66401;HTU21D;53211;45.040;38.788;2022-08-21T06:49:19;29.54;65.23
66401;HTU21D;53211;45.040;38.788;2022-08-21T06:51:45;29.63;65.15
66401;HTU21D;53211;45.040;38.788;2022-08-21T06:54:10;29.73;64.98
66401;HTU21D;53211;45.040;38.788;2022-08-21T06:56:36;29.77;64.88
66401;HTU21D;53211;45.040;38.788;2022-08-21T06:59:04;29.82;64.81
66401;HTU21D;53211;45.040;38.788;2022-08-21T07:01:30;29.91;64.76
66401;HTU21D;53211;45.040;38.788;2022-08-21T07:03:56;30.03;64.65
66401;HTU21D;53211;45.040;38.788;2022-08-21T07:06:22;30.15;64.54
66401;HTU21D;53211;45.040;38.788;2022-08-21T07:08:48;30.26;64.21
66401;HTU21D;53211;45.040;38.788;2022-08-21T07:11:19;30.35;64.04
66401;HTU21D;53211;45.040;38.788;2022-08-21T07:13:45;30.41;63.87
66401;HTU21D;53211;45.040;38.788;2022-08-21T07:16:11;30.47;63.76
66401;HTU21D;53211;45.040;38.788;2022-08-21T07:18:37;30.47;63.65
66401;HTU21D;53211;45.040;38.788;2022-08-21T07:21:04;30.46;63.69
66401;HTU21D;53211;45.040;38.788;2022-08-21T07:23:31;30.48;63.71
66401;HTU21D;53211;45.040;38.788;2022-08-21T07:25:58;30.53;63.63
66401;HTU21D;53211;45.040;38.788;2022-08-21T07:28:26;30.59;63.61
66401;HTU21D;53211;45.040;38.788;2022-08-21T07:30:55;30.64;63.60
66401;HTU21D;53211;45.040;38.788;2022-08-21T07:33:21;30.71;63.56
66401;HTU21D;53211;45.040;38.788;2022-08-21T07:35:47;30.79;63.44
66401;HTU21D;53211;45.040;38.788;2022-08-21T07:38:13;30.84;63.38
66401;HTU21D;53211;45.040;38.788;2022-08-21T07:40:39;30.91;63.31
66401;HTU21D;53211;45.040;38.788;2022-08-21T07:43:05;30.98;63.21
66401;HTU21D;53211;45.040;38.788;2022-08-21T07:45:30;31.02;63.10
66401;HTU21D;53211;45.040;38.788;2022-08-21T07:47:56;31.08;63.08
66401;HTU21D;53211;45.040;38.788;2022-08-21T07:50:22;31.13;63.04
66401;HTU21D;53211;45.040;38.788;2022-08-21T07:52:48;31.18;62.95
66401;HTU21D;53211;45.040;38.788;2022-08-21T07:55:15;31.23;62.85
66401;HTU21D;53211;45.040;38.788;2022-08-21T07:57:41;31.25;62.81
66401;HTU21D;53211;45.040;38.788;2022-08-21T08:00:09;31.28;62.74
66401;HTU21D;53211;45.040;38.788;2022-08-21T08:02:38;31.30;62.70
66401;HTU21D;53211;45.040;38.788;2022-08-21T08:05:04;31.36;62.71
66401;HTU21D;53211;45.040;38.788;2022-08-21T08:07:31;31.39;62.66
66401;HTU21D;53211;45.040;38.788;2022-08-21T08:09:57;31.42;62.59
66401;HTU21D;53211;45.040;38.788;2022-08-21T08:12:24;31.46;62.57
66401;HTU21D;53211;45.040;38.788;2022-08-21T08:14:58;31.52;62.48
66401;HTU21D;53211;45.040;38.788;2022-08-21T08:17:24;31.57;62.34
66401;HTU21D;53211;45.040;38.788;2022-08-21T08:19:50;31.60;62.31
66401;HTU21D;53211;45.040;38.788;2022-08-21T08:22:16;31.67;62.21
66401;HTU21D;53211;45.040;38.788;2022-08-21T08:24:45;31.76;62.10
66401;HTU21D;53211;45.040;38.788;2022-08-21T08:27:20;31.86;61.97
66401;HTU21D;53211;45.040;38.788;2022-08-21T08:29:46;31.97;61.88
66401;HTU21D;53211;45.040;38.788;2022-08-21T08:32:13;32.07;61.76
66401;HTU21D;53211;45.040;38.788;2022-08-21T08:34:39;32.15;61.63
66401;HTU21D;53211;45.040;38.788;2022-08-21T08:37:06;32.26;61.48
66401;HTU21D;53211;45.040;38.788;2022-08-21T08:39:32;0.00;61.35
66401;HTU21D;53211;45.040;38.788;2022-08-21T08:42:08;32.39;61.25
66401;HTU21D;53211;45.040;38.788;2022-08-21T08:44:36;32.49;61.15
66401;HTU21D;53211;45.040;38.788;2022-08-21T08:47:02;32.57;61.00
66401;HTU21D;53211;45.040;38.788;2022-08-21T08:51:59;32.68;60.78
66401;HTU21D;53211;45.040;38.788;2022-08-21T08:54:37;32.75;60.64
66401;HTU21D;53211;45.040;38.788;2022-08-21T08:57:07;32.82;60.54
66401;HTU21D;53211;45.040;38.788;2022-08-21T08:59:41;0.00;60.38
66401;HTU21D;53211;45.040;38.788;2022-08-21T09:02:09;32.93;60.19
66401;HTU21D;53211;45.040;38.788;2022-08-21T09:04:37;33.00;59.99
66401;HTU21D;53211;45.040;38.788;2022-08-21T09:09:48;33.08;59.84
66401;HTU21D;53211;45.040;38.788;2022-08-21T09:12:22;33.16;59.78
66401;HTU21D;53211;45.040;38.788;2022-08-21T09:14:59;33.23;59.67
66401;HTU21D;53211;45.040;38.788;2022-08-21T09:17:32;33.30;53.97
66401;HTU21D;53211;45.040;38.788;2022-08-21T09:22:48;33.40;58.98
66401;HTU21D;53211;45.040;38.788;2022-08-21T09:25:22;33.48;58.83
66401;HTU21D;53211;45.040;38.788;2022-08-21T09:27:49;33.56;58.64
66401;HTU21D;53211;45.040;38.788;2022-08-21T09:30:16;33.63;58.54
66401;HTU21D;53211;45.040;38.788;2022-08-21T09:32:42;33.71;58.42
66401;HTU21D;53211;45.040;38.788;2022-08-21T09:37:44;33.83;58.16
66401;HTU21D;53211;45.040;38.788;2022-08-21T09:40:30;33.93;57.98
66401;HTU21D;53211;45.040;38.788;2022-08-21T09:43:03;34.00;57.78
66401;HTU21D;53211;45.040;38.788;2022-08-21T09:45:30;34.06;57.63
66401;HTU21D;53211;45.040;38.788;2022-08-21T09:47:56;34.11;57.46
66401;HTU21D;53211;45.040;38.788;2022-08-21T09:50:23;34.18;57.32
66401;HTU21D;53211;45.040;38.788;2022-08-21T09:52:50;34.25;57.15
66401;HTU21D;53211;45.040;38.788;2022-08-21T09:58:33;34.37;56.93
66401;HTU21D;53211;45.040;38.788;2022-08-21T10:00:59;34.45;53.87
66401;HTU21D;53211;45.040;38.788;2022-08-21T10:03:26;34.49;56.42
66401;HTU21D;53211;45.040;38.788;2022-08-21T10:05:57;34.56;56.48
66401;HTU21D;53211;45.040;38.788;2022-08-21T10:08:23;34.65;56.37
66401;HTU21D;53211;45.040;38.788;2022-08-21T10:10:50;34.77;56.31
66401;HTU21D;53211;45.040;38.788;2022-08-21T10:13:21;34.89;56.29
66401;HTU21D;53211;45.040;38.788;2022-08-21T10:20:47;35.30;55.84
66401;HTU21D;53211;45.040;38.788;2022-08-21T10:26:02;35.92;54.86
66401;HTU21D;53211;45.040;38.788;2022-08-21T10:31:00;36.31;54.45
66401;HTU21D;53211;45.040;38.788;2022-08-21T10:49:11;41.60;46.89
66401;HTU21D;53211;45.040;38.788;2022-08-21T10:56:55;43.43;44.00
66401;HTU21D;53211;45.040;38.788;2022-08-21T11:04:30;44.45;42.65
66401;HTU21D;53211;45.040;38.788;2022-08-21T11:07:02;44.84;41.97
66401;HTU21D;53211;45.040;38.788;2022-08-21T11:09:29;45.10;41.50
66401;HTU21D;53211;45.040;38.788;2022-08-21T11:12:00;45.33;41.13
66401;HTU21D;53211;45.040;38.788;2022-08-21T11:17:09;45.77;86.77
66401;HTU21D;53211;45.040;38.788;2022-08-21T11:19:39;46.02;39.96
66401;HTU21D;53211;45.040;38.788;2022-08-21T11:30:01;46.98;38.35
66401;HTU21D;53211;45.040;38.788;2022-08-21T11:32:43;47.20;37.78
66401;HTU21D;53211;45.040;38.788;2022-08-21T11:37:51;47.41;37.39
66401;HTU21D;53211;45.040;38.788;2022-08-21T11:43:27;48.05;36.29
66401;HTU21D;53211;45.040;38.788;2022-08-21T11:46:02;48.15;35.74
66401;HTU21D;53211;45.040;38.788;2022-08-21T11:48:34;48.21;35.62
66401;HTU21D;53211;45.040;38.788;2022-08-21T11:51:05;48.32;35.50
66401;HTU21D;53211;45.040;38.788;2022-08-21T11:53:38;48.42;35.11
66401;HTU21D;53211;45.040;38.788;2022-08-21T11:56:12;48.42;34.98
66401;HTU21D;53211;45.040;38.788;2022-08-21T11:58:45;48.45;34.79
66401;HTU21D;53211;45.040;38.788;2022-08-21T12:01:15;48.58;34.52
66401;HTU21D;53211;45.040;38.788;2022-08-21T12:03:42;48.73;34.23
66401;HTU21D;53211;45.040;38.788;2022-08-21T12:06:16;48.85;34.02
66401;HTU21D;53211;45.040;38.788;2022-08-21T12:09:00;48.99;33.74
66401;HTU21D;53211;45.040;38.788;2022-08-21T12:11:26;49.04;33.41
66401;HTU21D;53211;45.040;38.788;2022-08-21T12:14:35;49.03;33.40
66401;HTU21D;53211;45.040;38.788;2022-08-21T12:16:42;48.99;33.31
66401;HTU21D;53211;45.040;38.788;2022-08-21T12:24:35;49.23;32.68
66401;HTU21D;53211;45.040;38.788;2022-08-21T12:27:25;49.13;32.59
66401;HTU21D;53211;45.040;38.788;2022-08-21T12:29:53;49.09;32.51
66401;HTU21D;53211;45.040;38.788;2022-08-21T12:32:24;49.09;32.51
66401;HTU21D;53211;45.040;38.788;2022-08-21T12:34:52;49.21;32.33
66401;HTU21D;53211;45.040;38.788;2022-08-21T12:39:54;49.31;32.02
66401;HTU21D;53211;45.040;38.788;2022-08-21T12:42:22;49.34;31.93
66401;HTU21D;53211;45.040;38.788;2022-08-21T12:44:59;49.36;31.79
66401;HTU21D;53211;45.040;38.788;2022-08-21T12:52:32;49.56;31.34
66401;HTU21D;53211;45.040;38.788;2022-08-21T12:54:59;49.45;31.24
66401;HTU21D;53211;45.040;38.788;2022-08-21T12:57:26;49.29;31.19
66401;HTU21D;53211;45.040;38.788;2022-08-21T12:59:53;49.16;31.30
66401;HTU21D;53211;45.040;38.788;2022-08-21T13:02:20;49.13;31.26
66401;HTU21D;53211;45.040;38.788;2022-08-21T13:04:50;49.04;31.20
66401;HTU21D;53211;45.040;38.788;2022-08-21T13:07:35;48.91;31.28
66401;HTU21D;53211;45.040;38.788;2022-08-21T13:12:46;48.75;31.06
66401;HTU21D;53211;45.040;38.788;2022-08-21T13:15:12;48.43;30.77
66401;HTU21D;53211;45.040;38.788;2022-08-21T13:17:39;47.69;31.00
66401;HTU21D;53211;45.040;38.788;2022-08-21T13:20:18;46.80;31.57
66401;HTU21D;53211;45.040;38.788;2022-08-21T13:22:44;45.84;32.30
66401;HTU21D;53211;45.040;38.788;2022-08-21T13:25:11;45.04;33.01
66401;HTU21D;53211;45.040;38.788;2022-08-21T13:27:37;44.36;33.61
66401;HTU21D;53211;45.040;38.788;2022-08-21T13:30:09;43.67;34.17
66401;HTU21D;53211;45.040;38.788;2022-08-21T13:32:36;43.03;34.77
66401;HTU21D;53211;45.040;38.788;2022-08-21T13:35:09;42.39;35.36
66401;HTU21D;53211;45.040;38.788;2022-08-21T13:37:35;41.87;35.91
66401;HTU21D;53211;45.040;38.788;2022-08-21T13:40:01;41.43;36.35
66401;HTU21D;53211;45.040;38.788;2022-08-21T13:42:27;41.03;36.72
66401;HTU21D;53211;45.040;38.788;2022-08-21T13:44:53;40.66;37.03
66401;HTU21D;53211;45.040;38.788;2022-08-21T13:47:19;40.27;37.43
66401;HTU21D;53211;45.040;38.788;2022-08-21T13:49:46;39.91;37.75
66401;HTU21D;53211;45.040;38.788;2022-08-21T13:54:41;39.22;38.43
66401;HTU21D;53211;45.040;38.788;2022-08-21T13:57:17;38.95;38.74
66401;HTU21D;53211;45.040;38.788;2022-08-21T13:59:43;38.69;39.02
66401;HTU21D;53211;45.040;38.788;2022-08-21T14:02:16;38.46;39.32
66401;HTU21D;53211;45.040;38.788;2022-08-21T14:07:16;38.03;39.90
66401;HTU21D;53211;45.040;38.788;2022-08-21T14:09:43;37.84;40.10
66401;HTU21D;53211;45.040;38.788;2022-08-21T14:12:14;37.61;40.36
66401;HTU21D;53211;45.040;38.788;2022-08-21T14:14:41;37.42;40.65
66401;HTU21D;53211;45.040;38.788;2022-08-21T14:17:09;37.46;40.46
66401;HTU21D;53211;45.040;38.788;2022-08-21T14:19:43;37.33;40.57
66401;HTU21D;53211;45.040;38.788;2022-08-21T14:22:23;37.17;40.74
66401;HTU21D;53211;45.040;38.788;2022-08-21T14:24:49;36.97;40.91
66401;HTU21D;53211;45.040;38.788;2022-08-21T14:27:16;36.78;41.13
66401;HTU21D;53211;45.040;38.788;2022-08-21T14:29:43;36.58;41.29
66401;HTU21D;53211;45.040;38.788;2022-08-21T14:32:18;36.39;41.49
66401;HTU21D;53211;45.040;38.788;2022-08-21T14:34:45;36.21;41.70
66401;HTU21D;53211;45.040;38.788;2022-08-21T14:37:11;36.00;41.92
66401;HTU21D;53211;45.040;38.788;2022-08-21T14:39:37;35.81;42.11
66401;HTU21D;53211;45.040;38.788;2022-08-21T14:42:03;35.66;42.33
66401;HTU21D;53211;45.040;38.788;2022-08-21T14:44:29;35.49;42.55
66401;HTU21D;53211;45.040;38.788;2022-08-21T14:46:55;35.35;42.73
66401;HTU21D;53211;45.040;38.788;2022-08-21T14:49:22;35.20;42.94
66401;HTU21D;53211;45.040;38.788;2022-08-21T14:51:48;35.09;43.10
66401;HTU21D;53211;45.040;38.788;2022-08-21T14:54:18;34.98;43.27
66401;HTU21D;53211;45.040;38.788;2022-08-21T14:56:44;34.88;43.40
66401;HTU21D;53211;45.040;38.788;2022-08-21T14:59:10;34.75;43.57
66401;HTU21D;53211;45.040;38.788;2022-08-21T15:01:36;34.64;43.75
66401;HTU21D;53211;45.040;38.788;2022-08-21T15:04:03;34.52;43.92
66401;HTU21D;53211;45.040;38.788;2022-08-21T15:06:29;34.42;44.06
66401;HTU21D;53211;45.040;38.788;2022-08-21T15:08:55;34.38;44.18
66401;HTU21D;53211;45.040;38.788;2022-08-21T15:11:21;34.30;44.29
66401;HTU21D;53211;45.040;38.788;2022-08-21T15:13:49;34.20;44.46
66401;HTU21D;53211;45.040;38.788;2022-08-21T15:16:17;34.15;44.54
66401;HTU21D;53211;45.040;38.788;2022-08-21T15:18:43;34.09;44.66
66401;HTU21D;53211;45.040;38.788;2022-08-21T15:21:09;34.00;44.78
66401;HTU21D;53211;45.040;38.788;2022-08-21T15:23:35;33.94;44.88
66401;HTU21D;53211;45.040;38.788;2022-08-21T15:26:01;33.80;45.10
66401;HTU21D;53211;45.040;38.788;2022-08-21T15:28:27;33.78;45.14
66401;HTU21D;53211;45.040;38.788;2022-08-21T15:30:52;33.70;45.25
66401;HTU21D;53211;45.040;38.788;2022-08-21T15:33:18;33.63;45.35
66401;HTU21D;53211;45.040;38.788;2022-08-21T15:35:44;33.53;45.48
66401;HTU21D;53211;45.040;38.788;2022-08-21T15:38:12;33.44;45.61
66401;HTU21D;53211;45.040;38.788;2022-08-21T15:40:56;33.33;45.74
66401;HTU21D;53211;45.040;38.788;2022-08-21T15:45:48;33.16;46.02
66401;HTU21D;53211;45.040;38.788;2022-08-21T15:48:14;33.05;46.15
66401;HTU21D;53211;45.040;38.788;2022-08-21T15:50:40;32.98;46.27
66401;HTU21D;53211;45.040;38.788;2022-08-21T15:53:05;32.89;46.41
66401;HTU21D;53211;45.040;38.788;2022-08-21T15:55:33;32.79;46.57
66401;HTU21D;53211;45.040;38.788;2022-08-21T15:57:59;32.70;46.72
66401;HTU21D;53211;45.040;38.788;2022-08-21T16:00:25;32.63;46.85
66401;HTU21D;53211;45.040;38.788;2022-08-21T16:02:53;32.54;46.97
66401;HTU21D;53211;45.040;38.788;2022-08-21T16:05:19;32.45;47.09
66401;HTU21D;53211;45.040;38.788;2022-08-21T16:07:45;32.37;47.32
66401;HTU21D;53211;45.040;38.788;2022-08-21T16:10:13;32.29;47.44
66401;HTU21D;53211;45.040;38.788;2022-08-21T16:12:43;32.22;47.54
66401;HTU21D;53211;45.040;38.788;2022-08-21T16:15:11;32.14;47.69
66401;HTU21D;53211;45.040;38.788;2022-08-21T16:17:39;32.04;47.81
66401;HTU21D;53211;45.040;38.788;2022-08-21T16:20:07;31.98;47.96
66401;HTU21D;53211;45.040;38.788;2022-08-21T16:22:33;31.92;48.07
66401;HTU21D;53211;45.040;38.788;2022-08-21T16:24:59;31.83;48.23
66401;HTU21D;53211;45.040;38.788;2022-08-21T16:27:25;31.76;48.36
66401;HTU21D;53211;45.040;38.788;2022-08-21T16:29:51;31.69;48.47
66401;HTU21D;53211;45.040;38.788;2022-08-21T16:32:17;31.63;48.58
66401;HTU21D;53211;45.040;38.788;2022-08-21T16:34:46;31.56;48.71